Time;durP1;ratioP1;P1;durP2;ratioP2;P2;SDS_P1;SDS_P2;PMS_P1;PMS_P2;Temp;Humidity;BMP_temperature;BMP_pressure;BME280_temperature;BME280_humidity;BME280_pressure;Samples;Min_cycle;Max_cycle;Signal;HPM_P1;HPM_P2
2023/08/31 00:01:39;;;;;;;5.57;5.37;;;15.80;44.50;;;;;;5035533;28;20169;-78
2023/08/31 00:04:08;;;;;;;5.40;5.10;;;15.70;44.70;;;;;;5036459;28;20212;-78
2023/08/31 00:06:34;;;;;;;6.03;5.73;;;15.70;44.50;;;;;;5034076;28;20423;-77
2023/08/31 00:08:59;;;;;;;5.67;5.37;;;15.70;43.80;;;;;;5034589;28;20498;-77
2023/08/31 00:11:25;;;;;;;6.37;5.97;;;15.70;42.80;;;;;;5033153;28;20192;-77
2023/08/31 00:13:52;;;;;;;6.20;5.87;;;15.70;43.40;;;;;;5034448;28;20192;-78
2023/08/31 00:16:17;;;;;;;5.77;5.53;;;15.70;42.00;;;;;;5033491;28;20489;-77
2023/08/31 00:18:44;;;;;;;6.70;6.30;;;15.70;42.10;;;;;;5032660;28;20459;-77
2023/08/31 00:21:10;;;;;;;6.97;6.67;;;15.80;42.10;;;;;;5036441;28;20180;-78
2023/08/31 00:23:37;;;;;;;6.60;6.20;;;15.70;42.00;;;;;;5035875;28;20459;-77
2023/08/31 00:26:02;;;;;;;6.03;5.83;;;15.60;41.90;;;;;;5035639;28;20232;-78
2023/08/31 00:28:28;;;;;;;6.20;5.90;;;15.50;43.00;;;;;;5035166;28;20431;-78
2023/08/31 00:30:54;;;;;;;6.63;6.20;;;15.60;42.80;;;;;;5034422;28;20538;-77
2023/08/31 00:33:20;;;;;;;6.47;6.07;;;15.50;43.10;;;;;;5035464;28;20200;-78
2023/08/31 00:35:46;;;;;;;6.20;5.90;;;15.40;42.00;;;;;;5035341;28;20173;-78
2023/08/31 00:38:15;;;;;;;6.17;5.77;;;15.40;43.20;;;;;;5035233;28;20438;-78
2023/08/31 00:40:44;;;;;;;7.10;6.70;;;15.30;43.50;;;;;;5035708;28;20180;-78
2023/08/31 00:43:10;;;;;;;6.20;5.90;;;15.40;44.70;;;;;;5035274;28;20426;-77
2023/08/31 00:45:37;;;;;;;6.90;6.43;;;15.30;43.30;;;;;;5034503;28;20920;-77
2023/08/31 00:48:04;;;;;;;6.50;6.00;;;15.40;44.50;;;;;;5033002;28;20510;-78
2023/08/31 00:50:30;;;;;;;6.27;5.97;;;15.40;44.70;;;;;;5032809;28;20411;-77
2023/08/31 00:52:55;;;;;;;6.40;6.10;;;15.40;44.50;;;;;;5033340;28;20782;-78
2023/08/31 00:55:21;;;;;;;7.40;6.67;;;15.30;44.10;;;;;;5032171;28;20181;-77
2023/08/31 00:57:47;;;;;;;6.57;6.27;;;15.30;44.00;;;;;;5033753;28;20242;-77
2023/08/31 01:00:13;;;;;;;6.63;6.33;;;15.30;44.20;;;;;;5031849;28;20238;-77
2023/08/31 01:03:37;;;;;;;7.20;6.80;;;15.30;44.20;;;;;;5032872;28;20223;-77
2023/08/31 01:06:31;;;;;;;6.80;6.50;;;15.30;43.30;;;;;;4990919;28;20416;-77
2023/08/31 01:09:12;;;;;;;6.47;6.17;;;15.30;43.20;;;;;;5031358;28;20837;-77
2023/08/31 01:11:58;;;;;;;8.27;7.50;;;15.30;44.50;;;;;;5033922;28;20407;-77
2023/08/31 01:14:26;;;;;;;7.27;6.87;;;15.20;44.70;;;;;;5036315;28;20493;-78
2023/08/31 01:16:53;;;;;;;7.00;6.57;;;15.30;44.30;;;;;;5039160;28;20427;-78
2023/08/31 01:19:39;;;;;;;6.93;6.53;;;15.30;43.80;;;;;;5038992;28;20404;-77
2023/08/31 01:22:11;;;;;;;7.20;6.83;;;15.30;43.40;;;;;;5039792;28;20413;-78
2023/08/31 01:24:38;;;;;;;7.23;6.87;;;15.20;44.60;;;;;;5039181;28;20474;-77
2023/08/31 01:27:04;;;;;;;7.50;6.80;;;15.20;44.80;;;;;;5039930;28;20427;-78
2023/08/31 01:29:30;;;;;;;6.60;6.30;;;15.40;43.50;;;;;;5040717;28;20846;-77
2023/08/31 01:31:56;;;;;;;6.87;6.47;;;15.40;42.80;;;;;;5042637;28;20442;-78
2023/08/31 01:34:21;;;;;;;6.60;6.30;;;15.40;43.70;;;;;;5042433;28;20420;-77
2023/08/31 01:36:53;;;;;;;7.13;6.83;;;15.40;43.40;;;;;;5042064;28;20201;-77
2023/08/31 01:39:34;;;;;;;7.00;6.70;;;15.50;43.00;;;;;;5041761;28;20238;-76
2023/08/31 01:42:04;;;;;;;6.90;6.60;;;15.60;42.20;;;;;;5041754;28;20498;-78
2023/08/31 01:44:33;;;;;;;7.50;7.00;;;15.80;40.90;;;;;;5040511;28;20501;-78
2023/08/31 01:47:05;;;;;;;8.13;7.50;;;15.80;40.50;;;;;;5038173;28;20869;-78
2023/08/31 01:49:36;;;;;;;7.00;6.70;;;16.00;39.70;;;;;;5039284;28;20436;-78
2023/08/31 01:52:01;;;;;;;7.60;7.00;;;16.10;38.80;;;;;;5040185;28;20407;-77
2023/08/31 01:54:27;;;;;;;7.53;7.10;;;16.20;38.10;;;;;;5038499;28;20983;-78
2023/08/31 01:56:52;;;;;;;7.50;7.20;;;16.30;37.40;;;;;;5039055;28;20232;-76
2023/08/31 01:59:18;;;;;;;7.83;7.13;;;16.30;37.00;;;;;;5039159;28;20711;-79
2023/08/31 02:01:43;;;;;;;6.97;6.67;;;16.30;37.00;;;;;;5039920;28;20181;-78
2023/08/31 02:04:09;;;;;;;7.63;7.30;;;16.30;37.80;;;;;;5039543;28;20254;-78
2023/08/31 02:06:35;;;;;;;7.87;7.37;;;16.30;37.50;;;;;;5038404;28;20314;-78
2023/08/31 02:09:00;;;;;;;6.70;6.40;;;16.30;37.00;;;;;;5038469;28;20167;-78
2023/08/31 02:11:25;;;;;;;7.93;7.53;;;16.40;37.10;;;;;;5038617;28;20173;-78
2023/08/31 02:13:52;;;;;;;7.17;6.77;;;16.40;37.10;;;;;;5039090;28;20181;-78
2023/08/31 02:16:17;;;;;;;7.53;7.13;;;16.50;37.20;;;;;;5040281;28;20216;-78
2023/08/31 02:18:43;;;;;;;6.57;6.27;;;16.30;38.20;;;;;;5042050;28;20451;-77
2023/08/31 02:21:08;;;;;;;7.77;7.37;;;16.10;38.70;;;;;;5041969;28;20172;-78
2023/08/31 02:23:34;;;;;;;7.20;6.70;;;16.20;38.60;;;;;;5041480;28;20208;-78
2023/08/31 02:25:59;;;;;;;7.77;7.47;;;16.30;38.20;;;;;;5040092;28;20165;-78
2023/08/31 02:28:25;;;;;;;8.20;7.70;;;16.40;37.40;;;;;;5040009;28;20192;-77
2023/08/31 02:30:59;;;;;;;7.37;6.87;;;16.50;37.20;;;;;;5041577;28;20177;-77
2023/08/31 02:33:25;;;;;;;7.37;7.03;;;16.50;37.20;;;;;;5038235;28;20184;-78
2023/08/31 02:35:51;;;;;;;7.63;7.23;;;16.40;37.10;;;;;;5038207;28;20690;-77
2023/08/31 02:38:16;;;;;;;8.07;7.57;;;16.10;38.80;;;;;;5037421;28;20197;-78
2023/08/31 02:40:42;;;;;;;7.80;7.50;;;16.00;39.40;;;;;;5037863;28;20420;-80
2023/08/31 02:43:07;;;;;;;8.43;7.90;;;15.90;39.70;;;;;;5036413;28;20226;-76
2023/08/31 02:45:33;;;;;;;7.37;7.07;;;15.80;40.40;;;;;;5036531;28;20591;-77
2023/08/31 02:47:58;;;;;;;6.97;6.70;;;15.70;40.90;;;;;;5035627;28;20193;-76
2023/08/31 02:50:24;;;;;;;7.10;6.80;;;15.70;41.60;;;;;;5035725;28;20176;-77
2023/08/31 02:52:49;;;;;;;7.70;7.30;;;15.70;41.40;;;;;;5034482;28;20173;-77
2023/08/31 02:55:15;;;;;;;8.07;7.67;;;15.70;41.60;;;;;;5034373;28;20221;-77
2023/08/31 02:57:41;;;;;;;7.50;7.20;;;15.80;41.60;;;;;;5035280;28;20209;-79
2023/08/31 03:00:11;;;;;;;7.27;6.90;;;15.90;41.00;;;;;;5037148;28;20180;-79
2023/08/31 03:02:36;;;;;;;7.43;7.03;;;16.00;40.90;;;;;;5039512;28;20247;-78
2023/08/31 03:05:02;;;;;;;7.63;7.20;;;16.10;40.20;;;;;;5037497;28;20503;-78
2023/08/31 03:07:27;;;;;;;7.20;6.90;;;16.30;39.50;;;;;;5038441;28;20209;-77
2023/08/31 03:09:53;;;;;;;7.50;7.10;;;16.40;38.20;;;;;;5034811;28;20177;-77
2023/08/31 03:12:18;;;;;;;7.53;7.20;;;16.30;38.50;;;;;;5035362;28;20176;-77
2023/08/31 03:14:44;;;;;;;7.53;7.30;;;16.30;38.60;;;;;;5035382;28;20619;-77
2023/08/31 03:17:09;;;;;;;7.70;7.40;;;16.30;37.70;;;;;;5034863;28;20212;-77
2023/08/31 03:19:35;;;;;;;8.00;7.70;;;16.40;37.10;;;;;;5034963;28;20176;-77
2023/08/31 03:22:00;;;;;;;7.10;6.90;;;16.50;37.20;;;;;;5033314;28;20546;-76
2023/08/31 03:24:26;;;;;;;7.30;7.00;;;16.50;37.20;;;;;;5032580;28;20196;-77
2023/08/31 03:26:52;;;;;;;6.50;6.30;;;16.50;37.20;;;;;;5033197;28;20192;-77
2023/08/31 03:29:17;;;;;;;7.20;6.90;;;16.50;37.20;;;;;;5033306;28;20399;-78
2023/08/31 03:31:43;;;;;;;8.10;7.70;;;16.50;37.20;;;;;;5034787;28;20177;-78
2023/08/31 03:34:08;;;;;;;8.27;7.87;;;16.50;36.60;;;;;;5034280;28;20542;-78
2023/08/31 03:36:34;;;;;;;7.50;7.20;;;16.40;36.90;;;;;;5033413;28;20177;-77
2023/08/31 03:38:59;;;;;;;8.33;8.03;;;16.50;36.70;;;;;;5033558;28;20260;-78
2023/08/31 03:41:25;;;;;;;7.80;7.37;;;16.50;36.10;;;;;;5033986;28;20172;-77
2023/08/31 03:43:50;;;;;;;7.90;7.50;;;16.60;36.00;;;;;;5031713;28;20201;-77
2023/08/31 03:46:16;;;;;;;8.90;8.57;;;16.60;35.50;;;;;;5033019;28;20164;-77
2023/08/31 03:48:42;;;;;;;7.47;7.17;;;16.40;36.30;;;;;;5033594;28;20281;-77
2023/08/31 03:51:07;;;;;;;7.50;7.00;;;16.10;37.60;;;;;;5032692;28;20248;-77
2023/08/31 03:53:33;;;;;;;6.50;6.30;;;16.10;38.10;;;;;;5032713;28;20667;-77
2023/08/31 03:55:58;;;;;;;7.40;7.00;;;16.10;37.60;;;;;;5033475;28;20560;-78
2023/08/31 03:58:24;;;;;;;8.50;7.80;;;16.20;36.90;;;;;;5033500;28;20204;-78
2023/08/31 04:00:50;;;;;;;8.83;8.37;;;16.20;36.90;;;;;;5033290;28;20172;-78
2023/08/31 04:03:16;;;;;;;8.97;8.63;;;16.10;37.60;;;;;;5033774;28;20172;-77
2023/08/31 04:05:42;;;;;;;8.97;8.43;;;15.80;38.70;;;;;;5033223;28;20466;-77
2023/08/31 04:08:07;;;;;;;8.90;8.30;;;15.70;39.40;;;;;;5033367;28;20192;-78
2023/08/31 04:10:33;;;;;;;8.60;8.20;;;15.60;40.10;;;;;;5033187;28;20408;-77
2023/08/31 04:12:58;;;;;;;9.23;8.83;;;15.50;40.30;;;;;;5033409;28;20169;-77
2023/08/31 04:15:24;;;;;;;8.00;7.60;;;15.50;40.60;;;;;;5032825;28;20211;-77
2023/08/31 04:17:50;;;;;;;9.70;9.20;;;15.60;40.40;;;;;;5032821;28;20216;-77
2023/08/31 04:20:15;;;;;;;9.03;8.53;;;15.70;39.40;;;;;;5032190;28;20245;-78
2023/08/31 04:22:41;;;;;;;9.03;8.63;;;15.80;38.70;;;;;;5032228;28;20184;-77
2023/08/31 04:25:07;;;;;;;8.40;8.00;;;15.70;38.80;;;;;;5032850;28;20204;-78
2023/08/31 04:27:32;;;;;;;8.57;8.17;;;15.60;39.00;;;;;;5036433;28;20678;-78
2023/08/31 04:30:02;;;;;;;9.47;9.07;;;15.70;39.40;;;;;;5036488;28;20172;-78
2023/08/31 04:32:27;;;;;;;8.20;7.80;;;15.80;38.30;;;;;;5036773;28;20219;-78
2023/08/31 04:34:53;;;;;;;8.97;8.67;;;15.90;37.40;;;;;;5035753;28;20808;-78
2023/08/31 04:37:20;;;;;;;9.20;8.60;;;16.00;36.90;;;;;;5032435;28;20188;-78
2023/08/31 04:39:46;;;;;;;8.70;8.40;;;16.00;36.80;;;;;;5032954;28;20412;-78
2023/08/31 04:42:11;;;;;;;9.57;8.80;;;16.00;36.80;;;;;;5031978;28;20922;-77
2023/08/31 04:44:37;;;;;;;9.17;8.77;;;16.00;36.80;;;;;;5033229;28;20747;-78
2023/08/31 04:47:03;;;;;;;10.23;9.63;;;16.00;36.20;;;;;;5035452;28;20192;-79
2023/08/31 04:49:28;;;;;;;9.47;9.07;;;15.90;36.70;;;;;;5038787;28;20172;-79
2023/08/31 04:51:57;;;;;;;9.60;8.80;;;15.70;37.90;;;;;;5040068;28;20661;-79
2023/08/31 04:54:22;;;;;;;10.30;9.70;;;15.60;38.20;;;;;;5040993;28;20204;-79
2023/08/31 04:56:48;;;;;;;10.30;9.90;;;15.50;38.90;;;;;;5040172;28;20439;-78
2023/08/31 04:59:14;;;;;;;8.90;8.40;;;15.50;38.40;;;;;;5039965;28;20185;-79
2023/08/31 05:01:39;;;;;;;9.80;9.40;;;15.30;39.30;;;;;;5040674;28;20207;-78
2023/08/31 05:04:05;;;;;;;10.37;9.80;;;15.30;39.90;;;;;;5038732;28;21010;-78
2023/08/31 05:06:31;;;;;;;11.10;10.17;;;15.30;39.60;;;;;;5038439;28;20169;-78
2023/08/31 05:08:56;;;;;;;10.50;10.10;;;15.30;39.60;;;;;;5037936;28;20549;-77
2023/08/31 05:11:22;;;;;;;10.60;9.90;;;15.30;39.80;;;;;;5037320;28;20218;-77
2023/08/31 05:13:48;;;;;;;10.30;9.60;;;15.20;39.70;;;;;;5035614;28;20172;-76
2023/08/31 05:16:13;;;;;;;11.33;10.70;;;15.10;40.20;;;;;;5033534;28;20208;-75
2023/08/31 05:18:40;;;;;;;10.00;9.50;;;15.00;40.30;;;;;;5028856;28;20561;-75
2023/08/31 05:21:06;;;;;;;9.83;9.27;;;15.10;41.10;;;;;;5016996;28;20173;-77
2023/08/31 05:23:31;;;;;;;9.83;9.43;;;15.10;41.10;;;;;;5016790;28;20958;-77
2023/08/31 05:25:58;;;;;;;9.50;9.00;;;15.30;41.20;;;;;;5015731;28;20503;-77
2023/08/31 05:28:23;;;;;;;9.97;9.47;;;15.50;39.70;;;;;;5038031;28;20194;-76
2023/08/31 05:30:53;;;;;;;11.27;10.17;;;15.40;38.80;;;;;;5021580;28;20424;-77
2023/08/31 05:33:19;;;;;;;9.77;9.30;;;15.30;39.70;;;;;;5018653;28;20260;-77
2023/08/31 05:35:45;;;;;;;9.80;9.30;;;15.30;40.00;;;;;;5023966;28;20426;-76
2023/08/31 05:38:11;;;;;;;9.37;8.87;;;15.50;39.30;;;;;;5028309;28;20523;-77
2023/08/31 05:40:37;;;;;;;9.37;8.97;;;15.70;38.20;;;;;;5033932;28;20412;-76
2023/08/31 05:43:05;;;;;;;11.03;10.13;;;15.50;37.80;;;;;;5030546;28;20424;-76
2023/08/31 05:45:34;;;;;;;11.03;10.30;;;15.40;37.60;;;;;;5034097;28;20215;-76
2023/08/31 05:48:00;;;;;;;10.10;9.50;;;15.40;38.80;;;;;;5036166;28;20436;-77
2023/08/31 05:50:27;;;;;;;10.50;9.80;;;15.50;39.60;;;;;;5035950;28;20449;-77
2023/08/31 05:52:53;;;;;;;9.73;9.30;;;15.60;38.30;;;;;;5037316;28;20462;-77
2023/08/31 05:55:18;;;;;;;10.10;9.50;;;15.80;38.60;;;;;;5036155;28;20411;-77
2023/08/31 05:57:44;;;;;;;9.17;8.77;;;15.90;37.30;;;;;;5034675;28;20439;-78
2023/08/31 06:00:10;;;;;;;9.10;8.70;;;15.90;37.50;;;;;;5034692;28;20181;-79
2023/08/31 06:02:35;;;;;;;10.50;9.90;;;16.00;37.30;;;;;;5030641;28;20204;-78
2023/08/31 06:05:03;;;;;;;11.13;10.30;;;15.90;36.70;;;;;;5023235;28;20459;-78
2023/08/31 06:07:29;;;;;;;9.87;9.47;;;15.90;37.80;;;;;;5014850;28;20196;-78
2023/08/31 06:09:55;;;;;;;10.73;10.20;;;16.00;37.60;;;;;;5014483;28;20408;-76
2023/08/31 06:12:20;;;;;;;10.10;9.50;;;16.10;36.80;;;;;;5020422;28;20188;-76
2023/08/31 06:14:46;;;;;;;10.10;9.50;;;16.10;36.80;;;;;;5034126;28;20407;-76
2023/08/31 06:17:12;;;;;;;10.00;9.50;;;16.00;37.10;;;;;;5033867;28;20212;-77
2023/08/31 06:19:39;;;;;;;10.20;9.70;;;16.00;37.20;;;;;;5032538;28;20180;-77
2023/08/31 06:22:04;;;;;;;11.13;10.17;;;16.00;36.80;;;;;;5034500;28;20454;-78
2023/08/31 06:24:30;;;;;;;9.70;9.27;;;15.80;37.60;;;;;;5033457;28;20462;-78
2023/08/31 06:26:56;;;;;;;9.70;9.20;;;15.70;37.80;;;;;;5035418;28;20599;-77
2023/08/31 06:29:22;;;;;;;11.67;11.13;;;15.80;37.40;;;;;;5034483;28;20449;-77
2023/08/31 06:31:48;;;;;;;9.37;8.97;;;15.80;37.10;;;;;;5035023;28;20470;-79
2023/08/31 06:34:13;;;;;;;11.60;11.00;;;15.70;37.20;;;;;;5037046;28;20188;-77
2023/08/31 06:36:39;;;;;;;10.87;10.00;;;15.60;37.70;;;;;;5037702;28;20176;-78
2023/08/31 06:39:06;;;;;;;10.20;9.60;;;15.60;38.20;;;;;;5037170;28;20177;-77
2023/08/31 06:41:31;;;;;;;9.23;8.73;;;15.60;38.60;;;;;;5037192;28;20674;-78
2023/08/31 06:43:57;;;;;;;9.30;8.80;;;15.50;38.60;;;;;;5036639;28;20458;-77
2023/08/31 06:46:23;;;;;;;9.13;8.73;;;15.50;39.00;;;;;;5036294;28;20172;-76
2023/08/31 06:48:48;;;;;;;9.37;8.87;;;15.50;38.60;;;;;;5035217;28;20199;-78
2023/08/31 06:51:14;;;;;;;9.50;9.00;;;15.60;39.20;;;;;;5036252;28;20180;-77
2023/08/31 06:53:44;;;;;;;9.83;9.27;;;15.50;38.50;;;;;;5035936;28;20685;-77
2023/08/31 06:56:09;;;;;;;7.90;7.40;;;15.50;38.40;;;;;;5035996;28;20448;-77
2023/08/31 06:58:35;;;;;;;10.30;9.53;;;15.60;38.40;;;;;;5035536;28;20439;-78
2023/08/31 07:01:01;;;;;;;9.43;8.60;;;15.60;37.40;;;;;;5036131;28;20177;-77
2023/08/31 07:03:27;;;;;;;8.93;8.20;;;15.80;37.10;;;;;;5034211;28;20180;-77
2023/08/31 07:05:52;;;;;;;8.73;8.00;;;15.90;36.70;;;;;;5034011;28;20415;-77
2023/08/31 07:08:18;;;;;;;8.70;8.30;;;15.90;35.20;;;;;;5034286;28;20189;-77
2023/08/31 07:10:43;;;;;;;8.90;8.40;;;15.90;32.70;;;;;;5035241;28;20176;-78
2023/08/31 07:13:09;;;;;;;8.77;8.40;;;15.90;32.20;;;;;;5036435;28;20196;-77
2023/08/31 07:15:34;;;;;;;8.97;8.47;;;15.90;33.20;;;;;;5036256;28;20662;-77
2023/08/31 07:18:00;;;;;;;8.60;8.20;;;15.90;32.70;;;;;;5035959;28;20217;-77
2023/08/31 07:20:25;;;;;;;8.70;8.30;;;15.90;32.60;;;;;;5036367;28;20235;-77
2023/08/31 07:22:51;;;;;;;10.23;9.63;;;15.90;32.50;;;;;;5034945;28;20173;-78
2023/08/31 07:25:17;;;;;;;10.27;9.47;;;15.90;32.30;;;;;;5033851;28;20204;-77
2023/08/31 07:27:43;;;;;;;11.97;9.27;;;16.00;32.50;;;;;;5034061;28;20199;-75
2023/08/31 07:30:09;;;;;;;9.50;8.90;;;16.10;32.80;;;;;;5033253;28;20173;-76
2023/08/31 07:32:35;;;;;;;9.20;8.60;;;16.00;32.20;;;;;;5036378;28;20263;-79
2023/08/31 07:35:01;;;;;;;9.70;9.20;;;16.00;31.60;;;;;;5034475;28;20874;-79
2023/08/31 07:37:26;;;;;;;8.07;7.77;;;16.10;32.20;;;;;;5035494;28;20663;-77
2023/08/31 07:39:52;;;;;;;9.00;8.50;;;16.20;31.50;;;;;;5035570;28;20208;-78
2023/08/31 07:42:17;;;;;;;10.10;9.27;;;16.20;30.80;;;;;;5034943;28;20173;-78
2023/08/31 07:44:44;;;;;;;8.60;8.20;;;16.30;30.00;;;;;;5034212;28;20327;-78
2023/08/31 07:47:09;;;;;;;9.30;8.63;;;16.30;30.30;;;;;;5033595;28;20737;-77
2023/08/31 07:49:35;;;;;;;8.63;8.03;;;16.50;30.00;;;;;;5033556;28;20407;-77
2023/08/31 07:52:00;;;;;;;10.03;9.23;;;16.50;29.20;;;;;;5032679;28;20173;-77
2023/08/31 07:54:26;;;;;;;8.93;8.33;;;16.60;28.60;;;;;;5030127;28;20251;-77
2023/08/31 07:56:52;;;;;;;9.23;8.73;;;16.70;26.60;;;;;;5034407;28;20197;-78
2023/08/31 07:59:18;;;;;;;9.40;9.00;;;16.80;26.40;;;;;;5034062;28;20207;-76
2023/08/31 08:01:44;;;;;;;9.67;8.70;;;16.90;25.60;;;;;;5031436;28;20169;-76
2023/08/31 08:04:11;;;;;;;9.70;9.20;;;17.00;24.60;;;;;;5032637;28;20846;-78
2023/08/31 08:06:36;;;;;;;9.10;8.60;;;17.10;24.10;;;;;;5036596;28;20900;-78
2023/08/31 08:09:02;;;;;;;9.33;8.83;;;17.10;23.40;;;;;;5033433;28;20483;-77
2023/08/31 08:11:30;;;;;;;7.97;7.63;;;17.20;23.30;;;;;;5034447;28;20191;-77
2023/08/31 08:13:55;;;;;;;8.60;8.00;;;17.20;22.60;;;;;;5035056;28;20805;-78
2023/08/31 08:16:21;;;;;;;9.50;8.90;;;17.30;22.20;;;;;;5032354;28;20549;-78
2023/08/31 08:18:46;;;;;;;9.73;9.03;;;17.40;22.90;;;;;;5034672;28;20208;-78
2023/08/31 08:21:12;;;;;;;9.27;8.77;;;17.50;22.60;;;;;;5035496;28;20227;-77
2023/08/31 08:23:37;;;;;;;9.10;8.50;;;17.50;21.30;;;;;;5034835;28;20539;-78
2023/08/31 08:26:03;;;;;;;9.70;9.20;;;17.60;20.10;;;;;;5036023;28;20394;-78
2023/08/31 08:28:28;;;;;;;9.53;9.03;;;17.50;20.70;;;;;;5035333;28;20200;-78
2023/08/31 08:30:54;;;;;;;9.30;8.80;;;17.50;21.20;;;;;;5034465;28;20183;-77
2023/08/31 08:33:20;;;;;;;9.30;8.80;;;17.50;20.00;;;;;;5033003;28;20212;-77
2023/08/31 08:35:45;;;;;;;9.43;8.73;;;17.40;20.80;;;;;;5026575;28;20191;-77
2023/08/31 08:38:11;;;;;;;8.53;8.23;;;17.40;18.70;;;;;;5031711;28;20197;-77
2023/08/31 08:40:37;;;;;;;8.87;8.20;;;17.50;19.80;;;;;;5030336;28;20181;-77
2023/08/31 08:43:06;;;;;;;8.83;8.33;;;17.50;18.20;;;;;;5032800;28;20199;-76
2023/08/31 08:45:38;;;;;;;8.83;8.33;;;17.60;18.20;;;;;;5033087;28;20254;-77
2023/08/31 08:48:06;;;;;;;8.80;8.17;;;17.60;18.50;;;;;;5032776;28;20441;-77
2023/08/31 08:50:33;;;;;;;10.70;10.10;;;17.70;18.30;;;;;;5033070;28;20403;-77
2023/08/31 08:53:00;;;;;;;9.13;8.63;;;17.60;18.10;;;;;;5038601;28;20407;-77
2023/08/31 08:55:25;;;;;;;8.80;8.30;;;17.70;18.30;;;;;;5040271;28;20407;-78
2023/08/31 08:57:51;;;;;;;9.37;8.70;;;17.70;18.50;;;;;;5044252;28;20442;-78
2023/08/31 09:00:17;;;;;;;9.03;8.63;;;17.70;18.90;;;;;;5045078;28;20180;-77
2023/08/31 09:02:43;;;;;;;10.93;9.37;;;17.80;19.90;;;;;;5037351;28;20635;-77
2023/08/31 09:05:08;;;;;;;9.53;8.93;;;17.90;18.60;;;;;;5035575;28;20204;-76
2023/08/31 19:55:20;;;;;;;9.37;8.10;;;18.70;25.10;;;;;;5437642;23;20861;-80
2023/08/31 19:57:45;;;;;;;8.03;7.30;;;18.70;25.00;;;;;;4995277;28;20428;-79
2023/08/31 20:00:11;;;;;;;8.80;8.00;;;18.70;24.90;;;;;;4998752;28;20621;-76
2023/08/31 20:02:37;;;;;;;6.60;6.30;;;18.70;24.80;;;;;;4999704;28;20174;-79
2023/08/31 20:05:03;;;;;;;7.50;6.80;;;18.60;24.50;;;;;;4982805;28;20990;-79
2023/08/31 20:07:29;;;;;;;7.40;6.83;;;18.60;24.90;;;;;;4983461;28;20185;-79
2023/08/31 20:09:55;;;;;;;7.90;7.30;;;18.60;25.00;;;;;;4985170;28;20414;-78
2023/08/31 20:12:21;;;;;;;8.80;8.00;;;18.60;24.60;;;;;;4998170;28;20477;-78
2023/08/31 20:14:55;;;;;;;8.70;8.03;;;18.70;24.50;;;;;;4998005;28;20173;-81
2023/08/31 20:17:21;;;;;;;7.40;7.00;;;18.70;24.60;;;;;;4997377;28;20181;-79
2023/08/31 20:19:47;;;;;;;7.87;7.23;;;18.70;24.70;;;;;;4982496;28;20513;-79
2023/08/31 20:22:12;;;;;;;7.80;7.30;;;18.70;24.80;;;;;;4999638;28;20209;-78
2023/08/31 20:24:38;;;;;;;7.40;6.80;;;18.70;24.60;;;;;;4997597;28;20259;-78
2023/08/31 20:27:05;;;;;;;7.70;7.20;;;18.70;24.80;;;;;;4980162;28;20640;-78
2023/08/31 20:29:31;;;;;;;8.97;7.33;;;18.70;24.80;;;;;;4996392;28;20201;-78
2023/08/31 20:31:56;;;;;;;8.07;7.53;;;18.70;24.80;;;;;;4995415;28;20432;-77
2023/08/31 20:34:24;;;;;;;7.10;6.50;;;18.70;25.00;;;;;;4994687;28;20352;-81
2023/08/31 20:36:52;;;;;;;8.00;7.40;;;18.70;25.00;;;;;;4978109;28;20189;-80
2023/08/31 20:39:17;;;;;;;7.43;6.83;;;18.70;24.70;;;;;;4999143;28;20650;-79
2023/08/31 20:41:44;;;;;;;8.80;8.00;;;18.70;25.00;;;;;;4980788;28;20481;-79
2023/08/31 20:44:10;;;;;;;8.97;8.37;;;18.70;25.00;;;;;;4982460;28;20582;-79
2023/08/31 20:46:36;;;;;;;8.67;7.83;;;18.60;24.70;;;;;;4997977;28;20460;-79
2023/08/31 20:49:04;;;;;;;9.10;8.40;;;18.60;25.10;;;;;;5000358;28;20220;-78
2023/08/31 20:51:30;;;;;;;8.93;8.20;;;18.60;25.40;;;;;;4984260;28;20417;-78
2023/08/31 20:53:56;;;;;;;7.37;6.97;;;18.50;25.60;;;;;;5005331;28;20419;-79
2023/08/31 20:56:22;;;;;;;7.40;6.90;;;18.50;25.80;;;;;;4989258;28;20198;-79
2023/08/31 20:58:48;;;;;;;9.13;8.50;;;18.50;26.00;;;;;;4988325;28;20226;-79
2023/08/31 21:01:13;;;;;;;8.00;7.40;;;18.50;26.00;;;;;;5003860;28;20585;-79
2023/08/31 21:03:41;;;;;;;8.77;8.17;;;18.50;26.50;;;;;;5002202;28;20178;-78
2023/08/31 21:06:10;;;;;;;7.60;7.10;;;18.60;26.40;;;;;;5000626;28;20210;-79
2023/08/31 21:37:05;;;;;;;8.47;7.80;;;18.40;29.40;;;;;;6023033;23;20385;-75
2023/08/31 21:39:30;;;;;;;9.17;8.40;;;18.50;29.60;;;;;;4992533;28;20453;-75
2023/08/31 21:41:56;;;;;;;8.90;8.17;;;18.40;29.90;;;;;;4996152;28;20178;-75
2023/08/31 21:44:21;;;;;;;8.17;7.63;;;18.40;30.30;;;;;;4995787;28;20294;-75
2023/08/31 21:46:47;;;;;;;9.10;8.60;;;18.40;30.40;;;;;;4978417;28;20719;-74
2023/08/31 21:49:13;;;;;;;10.10;8.83;;;18.40;30.30;;;;;;4995282;28;20604;-74
2023/08/31 21:51:39;;;;;;;9.10;8.20;;;18.40;30.10;;;;;;5002443;28;20182;-74
2023/08/31 21:54:05;;;;;;;9.27;8.67;;;18.40;30.60;;;;;;4993659;28;20640;-74
2023/08/31 21:56:30;;;;;;;8.20;7.70;;;18.40;30.50;;;;;;4993707;28;20492;-76
2023/08/31 21:58:56;;;;;;;9.50;8.70;;;18.40;30.50;;;;;;4993735;28;20194;-75
2023/08/31 22:01:21;;;;;;;9.43;8.60;;;18.40;30.50;;;;;;4993629;28;20166;-74
2023/08/31 22:03:47;;;;;;;10.10;9.40;;;18.20;31.10;;;;;;4976600;28;20180;-75
2023/08/31 22:06:12;;;;;;;10.07;9.37;;;18.10;31.40;;;;;;4993870;28;20206;-75
2023/08/31 22:08:38;;;;;;;10.17;9.37;;;18.10;31.90;;;;;;4994501;28;20194;-75
2023/08/31 22:11:05;;;;;;;10.03;9.33;;;18.00;32.00;;;;;;4995556;28;20180;-75
2023/08/31 22:13:31;;;;;;;9.93;9.17;;;17.90;32.40;;;;;;4977320;28;20436;-75
2023/08/31 22:15:57;;;;;;;9.90;9.00;;;17.90;32.50;;;;;;4995509;28;20421;-75
2023/08/31 22:18:22;;;;;;;9.70;8.90;;;17.90;32.50;;;;;;4994769;28;20276;-75
2023/08/31 22:20:48;;;;;;;9.10;8.40;;;17.90;32.20;;;;;;4976073;28;20669;-74
2023/08/31 22:23:14;;;;;;;9.80;8.37;;;17.80;32.50;;;;;;4976640;28;20185;-76
2023/08/31 22:25:39;;;;;;;9.77;9.07;;;17.90;32.70;;;;;;4993181;28;20204;-75
2023/08/31 22:28:05;;;;;;;9.10;8.30;;;17.90;32.50;;;;;;4992293;28;20698;-75
2023/08/31 22:30:32;;;;;;;9.10;8.30;;;17.90;32.80;;;;;;4993385;28;20177;-76
2023/08/31 22:32:57;;;;;;;9.33;8.73;;;18.00;32.60;;;;;;4991701;28;20604;-75
2023/08/31 22:35:23;;;;;;;10.10;9.30;;;17.90;32.50;;;;;;4993541;28;20805;-76
2023/08/31 22:37:48;;;;;;;9.53;8.73;;;17.90;33.30;;;;;;4994587;28;20672;-75
2023/08/31 22:40:14;;;;;;;9.57;8.70;;;17.90;32.80;;;;;;4976637;28;20174;-75
2023/08/31 22:42:41;;;;;;;13.50;12.70;;;18.00;33.30;;;;;;4994821;28;20236;-75
2023/08/31 22:45:07;;;;;;;10.53;9.63;;;18.00;32.20;;;;;;4994049;28;20197;-75
2023/08/31 22:47:34;;;;;;;10.43;9.30;;;18.00;32.80;;;;;;4993175;28;20857;-75
2023/08/31 22:50:00;;;;;;;10.50;9.43;;;17.90;32.50;;;;;;4993941;28;20429;-75
2023/08/31 22:52:26;;;;;;;10.67;10.07;;;17.90;32.50;;;;;;4975878;28;20417;-75
2023/08/31 22:54:55;;;;;;;9.13;8.33;;;17.80;32.70;;;;;;4993299;28;20432;-75
2023/08/31 22:57:21;;;;;;;9.67;8.97;;;17.90;33.40;;;;;;4975467;28;20421;-75
2023/08/31 22:59:47;;;;;;;9.57;8.87;;;17.90;32.80;;;;;;4993032;28;20907;-75
2023/08/31 23:02:12;;;;;;;9.07;8.17;;;18.00;32.90;;;;;;4976166;28;20420;-75
2023/08/31 23:04:38;;;;;;;9.00;8.50;;;18.00;32.50;;;;;;4991565;28;20271;-75
2023/08/31 23:07:04;;;;;;;7.90;7.30;;;18.10;32.40;;;;;;4992022;28;20229;-75
2023/08/31 23:09:30;;;;;;;8.57;8.07;;;18.00;29.70;;;;;;4992596;28;20248;-76
2023/08/31 23:12:00;;;;;;;7.70;7.30;;;17.90;29.70;;;;;;4993929;28;20175;-76
2023/08/31 23:14:26;;;;;;;8.40;7.90;;;17.80;29.50;;;;;;4993166;28;20418;-73
2023/08/31 23:16:52;;;;;;;8.10;7.60;;;17.80;29.50;;;;;;4975987;28;20417;-74
2023/08/31 23:19:17;;;;;;;8.60;8.10;;;17.70;29.50;;;;;;4975422;28;20483;-75
2023/08/31 23:21:43;;;;;;;10.43;7.87;;;17.60;29.70;;;;;;4993455;28;20248;-75
2023/08/31 23:24:09;;;;;;;8.10;7.50;;;17.50;29.70;;;;;;4975614;28;20206;-74
2023/08/31 23:26:34;;;;;;;7.73;7.20;;;17.50;29.50;;;;;;4993504;28;20233;-75
2023/08/31 23:29:00;;;;;;;8.20;7.80;;;17.40;29.60;;;;;;4992783;28;20526;-75
2023/08/31 23:31:25;;;;;;;7.70;7.30;;;17.40;29.70;;;;;;4992636;28;20170;-75
2023/08/31 23:33:51;;;;;;;8.10;7.60;;;17.40;29.70;;;;;;4991634;28;20178;-75
2023/08/31 23:36:16;;;;;;;7.60;7.10;;;17.40;29.80;;;;;;4991902;28;20181;-74
2023/08/31 23:38:42;;;;;;;8.43;7.97;;;17.40;30.10;;;;;;4973656;28;20213;-76
2023/08/31 23:41:08;;;;;;;8.03;7.53;;;17.40;29.90;;;;;;4991664;28;20305;-76
2023/08/31 23:43:33;;;;;;;8.10;7.60;;;17.30;30.00;;;;;;4991018;28;20178;-76
2023/08/31 23:45:59;;;;;;;7.03;6.73;;;17.30;30.40;;;;;;4990769;28;20241;-76
2023/08/31 23:48:24;;;;;;;7.30;6.80;;;17.20;30.50;;;;;;4990658;28;20197;-75
2023/08/31 23:50:50;;;;;;;7.03;6.70;;;17.20;30.80;;;;;;4991282;28;20174;-76
2023/08/31 23:53:16;;;;;;;7.27;6.77;;;17.20;31.10;;;;;;4991036;28;20170;-75
2023/08/31 23:55:42;;;;;;;7.10;6.67;;;17.20;30.90;;;;;;4990980;28;20257;-75
2023/08/31 23:58:11;;;;;;;6.90;6.43;;;17.20;31.20;;;;;;4991094;28;20206;-76
